createdAt,value
2019-05-06T00:00:26.532Z,12.23
2019-05-06T00:02:55.961Z,13.13
2019-05-06T00:05:27.028Z,13.70
2019-05-06T00:07:56.685Z,12.07
2019-05-06T00:10:28.656Z,11.73
2019-05-06T00:12:58.519Z,9.83
2019-05-06T00:15:28.278Z,11.33
2019-05-06T00:17:58.149Z,10.80
2019-05-06T00:20:27.663Z,11.67
2019-05-06T00:22:58.726Z,10.43
2019-05-06T00:25:29.804Z,11.23
2019-05-06T00:30:50.184Z,12.17
2019-05-06T00:33:19.751Z,8.73
2019-05-06T00:35:49.242Z,16.40
2019-05-06T00:38:18.632Z,12.73
2019-05-06T00:40:50.045Z,16.20
2019-05-06T00:43:19.455Z,13.73
2019-05-06T00:45:48.887Z,14.10
2019-05-06T00:48:18.283Z,16.30
2019-05-06T00:50:47.995Z,15.63
2019-05-06T00:53:23.805Z,11.70
2019-05-06T00:55:53.833Z,11.30
2019-05-06T00:58:23.956Z,10.47
2019-05-06T01:00:53.967Z,13.07
2019-05-06T01:03:24.040Z,13.63
2019-05-06T01:05:54.382Z,11.47
2019-05-06T01:08:24.302Z,12.87
2019-05-06T01:10:54.481Z,12.93
2019-05-06T01:13:31.895Z,8.10
2019-05-06T01:16:01.334Z,7.50
2019-05-06T01:18:30.987Z,12.63
2019-05-06T01:21:14.502Z,10.97
2019-05-06T01:23:45.044Z,12.60
2019-05-06T01:26:16.418Z,8.57
2019-05-06T01:28:46.128Z,11.97
2019-05-06T01:31:15.940Z,9.53
2019-05-06T01:33:45.753Z,8.33
2019-05-06T01:36:16.640Z,9.77
2019-05-06T01:39:04.389Z,10.87
2019-05-06T01:41:38.295Z,11.20
2019-05-06T01:44:07.746Z,8.47
2019-05-06T01:46:37.175Z,11.10
2019-05-06T01:49:06.946Z,9.43
2019-05-06T01:51:36.453Z,7.77
2019-05-06T01:54:06.095Z,9.30
2019-05-06T01:56:35.667Z,9.40
2019-05-06T01:59:05.334Z,8.57
2019-05-06T02:01:34.854Z,7.47
2019-05-06T02:04:04.617Z,9.97
2019-05-06T02:06:34.695Z,11.53
2019-05-06T02:09:08.536Z,9.50
2019-05-06T02:11:38.133Z,8.83
2019-05-06T02:14:07.719Z,7.47
2019-05-06T02:16:37.100Z,6.90
2019-05-06T02:19:06.648Z,8.83
2019-05-06T02:21:38.092Z,8.83
2019-05-06T02:24:24.345Z,7.50
2019-05-06T02:26:54.385Z,7.87
2019-05-06T02:29:34.155Z,7.43
2019-05-06T02:32:26.003Z,10.73
2019-05-06T02:34:54.653Z,8.93
2019-05-06T02:37:25.979Z,7.70
2019-05-06T02:39:55.423Z,7.53
2019-05-06T02:42:24.857Z,7.33
2019-05-06T02:44:54.684Z,8.43
2019-05-06T02:47:26.369Z,8.70
2019-05-06T02:50:04.161Z,9.40
2019-05-06T02:52:32.991Z,8.33
2019-05-06T02:55:06.353Z,9.80
2019-05-06T02:57:35.312Z,10.90
2019-05-06T03:00:13.080Z,7.77
2019-05-06T03:02:44.900Z,8.47
2019-05-06T03:05:13.201Z,7.23
2019-05-06T03:07:43.679Z,10.43
2019-05-06T03:10:17.580Z,7.53
2019-05-06T03:12:47.105Z,9.40
2019-05-06T03:15:18.166Z,8.77
2019-05-06T03:17:47.894Z,8.67
2019-05-06T03:20:36.931Z,10.40
2019-05-06T03:23:09.504Z,10.50
2019-05-06T03:25:43.744Z,9.77
2019-05-06T03:28:13.229Z,7.37
2019-05-06T03:30:45.773Z,10.47
2019-05-06T03:33:37.915Z,9.33
2019-05-06T03:36:00.762Z,7.97
2019-05-06T03:38:16.529Z,8.93
2019-05-06T03:40:46.185Z,11.00
2019-05-06T03:43:16.102Z,9.77
2019-05-06T03:45:53.811Z,10.03
2019-05-06T03:48:27.897Z,8.20
2019-05-06T03:50:57.337Z,11.17
2019-05-06T03:53:28.518Z,8.70
2019-05-06T03:55:58.593Z,8.33
2019-05-06T03:58:28.323Z,10.87
2019-05-06T04:00:58.557Z,9.67
2019-05-06T04:03:42.732Z,8.57
2019-05-06T04:06:04.491Z,12.30
2019-05-06T04:08:34.451Z,9.43
2019-05-06T04:11:04.339Z,9.97
2019-05-06T04:13:34.931Z,9.07
2019-05-06T04:16:08.160Z,10.47
2019-05-06T04:18:43.861Z,13.37
2019-05-06T04:21:24.772Z,11.27
2019-05-06T04:24:13.849Z,11.90
2019-05-06T04:26:46.438Z,9.93
2019-05-06T04:29:16.689Z,9.53
2019-05-06T04:31:47.889Z,11.10
2019-05-06T04:34:19.838Z,13.10
2019-05-06T04:36:49.590Z,11.77
2019-05-06T04:39:23.057Z,10.03
2019-05-06T04:41:53.606Z,12.83
2019-05-06T04:44:23.937Z,7.47
2019-05-06T04:46:54.515Z,11.73
2019-05-06T04:49:24.085Z,10.87
2019-05-06T04:51:54.264Z,9.17
2019-05-06T04:54:26.570Z,13.40
2019-05-06T04:56:56.182Z,11.43
2019-05-06T04:59:25.777Z,8.30
2019-05-06T05:01:56.989Z,8.90
2019-05-06T05:04:32.299Z,14.30
2019-05-06T05:06:57.613Z,9.03
2019-05-06T05:09:27.972Z,8.87
2019-05-06T05:11:59.172Z,9.77
2019-05-06T05:14:32.764Z,10.87
2019-05-06T05:17:04.065Z,9.63
2019-05-06T05:19:33.827Z,9.50
2019-05-06T05:22:06.563Z,8.53
2019-05-06T05:24:37.369Z,8.73
2019-05-06T05:27:07.369Z,10.60
2019-05-06T05:29:37.086Z,7.57
2019-05-06T05:32:06.521Z,10.33
2019-05-06T05:34:40.659Z,11.13
2019-05-06T05:37:07.494Z,11.90
2019-05-06T05:39:36.964Z,7.33
2019-05-06T05:42:22.113Z,10.03
2019-05-06T05:44:52.985Z,7.57
2019-05-06T05:47:24.073Z,8.13
2019-05-06T05:50:04.577Z,6.87
2019-05-06T05:52:34.297Z,7.77
2019-05-06T05:55:05.693Z,7.33
2019-05-06T05:57:35.318Z,9.20
2019-05-06T06:00:05.735Z,7.77
2019-05-06T06:02:35.460Z,9.10
2019-05-06T06:05:06.734Z,8.87
2019-05-06T06:07:36.493Z,7.77
2019-05-06T06:10:08.171Z,7.03
2019-05-06T06:12:37.747Z,13.47
2019-05-06T06:15:09.047Z,8.10
2019-05-06T06:17:43.345Z,9.57
2019-05-06T06:20:32.740Z,9.83
2019-05-06T06:23:03.971Z,8.23
2019-05-06T06:25:33.694Z,9.27
2019-05-06T06:28:03.794Z,10.07
2019-05-06T06:30:37.702Z,8.03
2019-05-06T06:33:07.209Z,8.60
2019-05-06T06:35:53.369Z,7.10
2019-05-06T06:38:27.118Z,3.47
2019-05-06T06:40:56.591Z,4.10
2019-05-06T06:43:27.233Z,3.73
2019-05-06T06:45:59.546Z,3.60
2019-05-06T06:48:28.977Z,3.53
2019-05-06T06:50:58.436Z,4.03
2019-05-06T06:53:27.965Z,4.57
2019-05-06T06:56:05.174Z,2.37
2019-05-06T06:58:37.183Z,4.37
2019-05-06T07:01:23.489Z,4.37
2019-05-06T07:03:55.543Z,6.87
2019-05-06T07:06:26.719Z,3.27
2019-05-06T07:08:56.714Z,4.37
2019-05-06T07:11:26.108Z,5.10
2019-05-06T07:13:56.007Z,6.67
2019-05-06T07:16:25.408Z,5.70
2019-05-06T07:18:55.010Z,4.37
2019-05-06T07:21:29.603Z,6.97
2019-05-06T07:23:59.060Z,4.10
2019-05-06T07:26:31.772Z,6.33
2019-05-06T07:29:03.961Z,6.27
2019-05-06T07:31:33.051Z,5.67
2019-05-06T07:34:02.683Z,4.93
2019-05-06T07:36:32.328Z,6.67
2019-05-06T07:39:04.013Z,6.53
2019-05-06T07:41:46.527Z,4.83
2019-05-06T07:44:22.445Z,6.07
2019-05-06T07:46:56.495Z,5.87
2019-05-06T07:49:26.227Z,8.07
2019-05-06T07:51:55.657Z,7.93
2019-05-06T07:54:25.052Z,8.00
2019-05-06T07:56:54.611Z,9.03
2019-05-06T07:59:24.314Z,7.47
2019-05-06T08:01:54.931Z,7.60
2019-05-06T08:04:24.464Z,6.87
2019-05-06T08:06:54.000Z,6.77
2019-05-06T08:09:23.391Z,8.70
2019-05-06T08:11:53.177Z,8.63
2019-05-06T08:14:24.240Z,5.33
2019-05-06T08:17:02.273Z,10.07
2019-05-06T08:19:33.631Z,9.83
2019-05-06T08:22:05.412Z,10.33
2019-05-06T08:24:35.402Z,10.93
2019-05-06T08:27:04.925Z,9.23
2019-05-06T08:29:34.479Z,6.40
2019-05-06T08:32:03.964Z,7.27
2019-05-06T08:34:34.368Z,8.70
2019-05-06T08:37:08.437Z,5.97
2019-05-06T08:39:37.882Z,7.10
2019-05-06T08:42:07.398Z,5.33
2019-05-06T08:44:36.900Z,8.00
2019-05-06T08:47:06.491Z,6.80
2019-05-06T08:49:54.390Z,7.97
2019-05-06T08:52:27.237Z,11.77
2019-05-06T08:55:04.337Z,9.67
2019-05-06T08:57:33.166Z,6.93
2019-05-06T09:00:03.385Z,8.80
2019-05-06T09:02:33.152Z,10.07
2019-05-06T09:05:03.052Z,10.03
2019-05-06T09:07:34.060Z,7.43
2019-05-06T09:10:05.639Z,9.60
2019-05-06T09:12:35.074Z,8.23
2019-05-06T09:15:05.692Z,7.57
2019-05-06T09:17:35.117Z,7.37
2019-05-06T09:20:07.293Z,5.37
2019-05-06T09:22:36.728Z,4.87
2019-05-06T09:25:09.656Z,6.43
2019-05-06T09:27:49.633Z,5.23
2019-05-06T09:30:37.724Z,5.27
2019-05-06T09:33:07.624Z,7.13
2019-05-06T09:35:37.351Z,4.80
2019-05-06T09:38:06.945Z,4.57
2019-05-06T09:40:38.174Z,4.20
2019-05-06T09:43:07.665Z,6.40
2019-05-06T09:45:37.103Z,4.43
2019-05-06T09:48:08.311Z,3.60
2019-05-06T09:50:45.416Z,4.73
2019-05-06T09:53:14.019Z,6.03
2019-05-06T09:56:13.026Z,5.13
2019-05-06T09:58:43.365Z,6.93
2019-05-06T10:01:13.667Z,5.47
2019-05-06T10:03:43.196Z,4.53
2019-05-06T10:06:13.245Z,6.30
2019-05-06T10:08:42.809Z,4.10
2019-05-06T10:11:12.319Z,5.13
2019-05-06T10:13:43.127Z,6.47
2019-05-06T10:16:13.143Z,3.43
2019-05-06T10:18:42.794Z,7.50
2019-05-06T10:21:12.596Z,5.90
2019-05-06T10:23:42.509Z,4.20
2019-05-06T10:26:12.970Z,7.37
2019-05-06T10:31:32.713Z,5.97
2019-05-06T10:34:13.842Z,4.77
2019-05-06T10:37:19.058Z,4.23
2019-05-06T10:39:58.033Z,6.80
2019-05-06T10:42:39.686Z,8.93
2019-05-06T10:45:12.480Z,8.13
2019-05-06T10:47:42.402Z,6.67
2019-05-06T10:50:13.539Z,4.17
2019-05-06T10:53:02.730Z,4.50
2019-05-06T10:55:32.598Z,5.87
2019-05-06T10:58:02.776Z,6.03
2019-05-06T11:00:33.164Z,5.37
2019-05-06T11:03:14.873Z,4.73
2019-05-06T11:05:44.660Z,5.40
2019-05-06T11:08:14.575Z,5.73
2019-05-06T11:10:45.498Z,7.27
2019-05-06T11:13:16.042Z,6.23
2019-05-06T11:15:45.624Z,5.83
2019-05-06T11:18:15.137Z,8.90
2019-05-06T11:20:44.535Z,4.97
2019-05-06T11:23:14.462Z,4.37
2019-05-06T11:25:43.959Z,5.73
2019-05-06T11:28:35.028Z,4.10
2019-05-06T11:31:04.673Z,7.00
2019-05-06T11:33:52.620Z,7.40
2019-05-06T11:36:23.830Z,6.40
2019-05-06T11:38:53.263Z,4.90
2019-05-06T11:41:23.381Z,4.63
2019-05-06T11:43:53.024Z,7.23
2019-05-06T11:46:24.081Z,4.70
2019-05-06T11:48:54.226Z,7.80
2019-05-06T11:51:25.495Z,6.43
2019-05-06T11:53:54.922Z,5.80
2019-05-06T11:56:24.395Z,5.83
2019-05-06T11:58:55.546Z,4.37
2019-05-06T12:01:29.196Z,6.07
2019-05-06T12:03:58.630Z,3.73
2019-05-06T12:06:28.039Z,4.07
2019-05-06T12:08:57.974Z,4.53
2019-05-06T12:11:27.440Z,5.57
2019-05-06T12:13:56.865Z,5.33
2019-05-06T12:16:26.571Z,3.03
2019-05-06T12:18:59.500Z,2.93
2019-05-06T12:21:28.734Z,4.47
2019-05-06T12:23:58.243Z,3.70
2019-05-06T12:26:27.641Z,3.67
2019-05-06T12:28:57.049Z,4.70
2019-05-06T12:31:26.456Z,4.30
2019-05-06T12:33:56.027Z,3.87
2019-05-06T12:36:25.665Z,3.53
2019-05-06T12:39:17.679Z,4.17
2019-05-06T12:42:04.576Z,2.20
2019-05-06T12:44:35.784Z,4.37
2019-05-06T12:47:25.487Z,2.97
2019-05-06T12:49:54.943Z,4.43
2019-05-06T12:52:24.347Z,3.43
2019-05-06T12:55:00.402Z,3.43
2019-05-06T12:57:25.034Z,3.23
2019-05-06T12:59:54.552Z,3.77
2019-05-06T13:02:24.060Z,3.77
2019-05-06T13:04:59.708Z,3.90
2019-05-06T13:07:26.359Z,4.40
2019-05-06T13:09:56.176Z,2.63
2019-05-06T13:12:27.362Z,2.73
2019-05-06T13:14:57.238Z,3.87
2019-05-06T13:17:28.351Z,4.40
2019-05-06T13:19:58.119Z,6.90
2019-05-06T13:22:29.353Z,4.43
2019-05-06T13:24:58.810Z,3.63
2019-05-06T13:27:32.784Z,6.43
2019-05-06T13:30:02.591Z,8.67
2019-05-06T13:32:33.995Z,7.03
2019-05-06T13:35:03.710Z,4.97
2019-05-06T13:37:33.712Z,7.73
2019-05-06T13:40:04.354Z,6.20
2019-05-06T13:42:35.799Z,2.83
2019-05-06T13:45:07.149Z,5.57
2019-05-06T13:47:47.325Z,5.80
2019-05-06T13:50:18.528Z,5.67
2019-05-06T13:53:07.231Z,4.97
2019-05-06T13:55:22.059Z,5.00
2019-05-06T13:57:52.382Z,5.67
2019-05-06T14:00:22.537Z,5.00
2019-05-06T14:02:56.507Z,5.93
2019-05-06T14:05:26.571Z,6.93
2019-05-06T14:07:56.176Z,4.10
2019-05-06T14:10:27.297Z,4.27
2019-05-06T14:12:56.744Z,6.10
2019-05-06T14:15:26.221Z,3.47
2019-05-06T14:17:55.648Z,5.50
2019-05-06T14:20:25.219Z,4.70
2019-05-06T14:22:54.709Z,6.03
2019-05-06T14:25:28.480Z,3.63
2019-05-06T14:27:59.688Z,3.30
2019-05-06T14:30:33.539Z,4.23
2019-05-06T14:33:03.347Z,7.63
2019-05-06T14:35:34.238Z,6.23
2019-05-06T14:38:03.782Z,11.30
2019-05-06T14:40:34.970Z,5.77
2019-05-06T14:43:05.180Z,9.60
2019-05-06T14:45:34.818Z,9.30
2019-05-06T14:48:04.356Z,12.43
2019-05-06T14:50:45.089Z,12.03
2019-05-06T14:53:05.276Z,7.17
2019-05-06T14:55:36.411Z,6.37
2019-05-06T14:58:06.679Z,9.37
2019-05-06T15:00:36.408Z,6.80
2019-05-06T15:03:07.492Z,10.87
2019-05-06T15:05:37.012Z,11.87
2019-05-06T15:08:06.403Z,10.80
2019-05-06T15:10:35.902Z,10.53
2019-05-06T15:13:05.290Z,10.00
2019-05-06T15:15:35.084Z,11.23
2019-05-06T15:18:04.755Z,9.13
2019-05-06T15:20:34.368Z,8.23
2019-05-06T15:23:04.583Z,6.87
2019-05-06T15:25:34.128Z,10.10
2019-05-06T15:28:03.747Z,9.97
2019-05-06T15:30:52.456Z,12.47
2019-05-06T15:33:23.023Z,10.37
2019-05-06T15:36:06.042Z,10.77
2019-05-06T15:38:35.503Z,8.90
2019-05-06T15:41:05.095Z,8.33
2019-05-06T15:43:34.499Z,6.07
2019-05-06T15:46:04.089Z,10.33
2019-05-06T15:48:33.495Z,7.53
2019-05-06T15:51:02.909Z,6.97
2019-05-06T15:53:33.215Z,8.63
2019-05-06T15:56:02.859Z,8.93
2019-05-06T15:58:32.882Z,7.80
2019-05-06T16:01:03.333Z,6.13
2019-05-06T16:03:33.567Z,6.53
2019-05-06T16:06:03.117Z,7.97
2019-05-06T16:08:32.528Z,8.57
2019-05-06T16:11:02.877Z,12.77
2019-05-06T16:13:32.408Z,9.40
2019-05-06T16:16:02.938Z,8.83
2019-05-06T16:18:33.138Z,9.80
2019-05-06T16:21:03.028Z,8.53
2019-05-06T16:23:37.070Z,9.00
2019-05-06T16:26:06.505Z,6.73
2019-05-06T16:28:35.974Z,11.83
2019-05-06T16:31:05.399Z,7.40
2019-05-06T16:33:34.869Z,7.00
2019-05-06T16:36:04.630Z,10.63
2019-05-06T16:38:34.057Z,4.47
2019-05-06T16:41:12.825Z,4.93
2019-05-06T16:43:35.902Z,9.97
2019-05-06T16:46:05.424Z,7.80
2019-05-06T16:48:34.864Z,8.23
2019-05-06T16:51:04.855Z,6.53
2019-05-06T16:53:35.228Z,6.67
2019-05-06T16:56:09.830Z,7.60
2019-05-06T16:58:45.078Z,12.57
2019-05-06T17:01:14.930Z,7.17
2019-05-06T17:03:45.330Z,4.97
2019-05-06T17:06:16.947Z,9.63
2019-05-06T17:08:46.388Z,9.43
2019-05-06T17:11:26.838Z,7.80
2019-05-06T17:13:47.684Z,10.17
2019-05-06T17:16:18.943Z,7.00
2019-05-06T17:18:48.340Z,8.13
2019-05-06T17:21:18.193Z,8.67
2019-05-06T17:23:47.659Z,13.30
2019-05-06T17:26:18.580Z,11.60
2019-05-06T17:28:52.496Z,12.77
2019-05-06T17:31:26.071Z,7.00
2019-05-06T17:33:59.835Z,9.47
2019-05-06T17:36:33.658Z,8.77
2019-05-06T17:39:04.891Z,11.00
2019-05-06T17:41:44.510Z,6.23
2019-05-06T17:44:06.224Z,15.00
2019-05-06T17:46:37.659Z,12.77
2019-05-06T17:49:08.737Z,9.43
2019-05-06T17:51:39.833Z,12.87
2019-05-06T17:54:12.198Z,10.00
2019-05-06T17:56:41.901Z,10.30
2019-05-06T17:59:11.435Z,10.10
2019-05-06T18:01:42.715Z,9.60
2019-05-06T18:04:12.669Z,9.13
2019-05-06T18:06:42.617Z,10.33
2019-05-06T18:09:12.808Z,7.03
2019-05-06T18:11:43.892Z,9.50
2019-05-06T18:14:13.523Z,14.03
2019-05-06T18:16:42.945Z,10.50
2019-05-06T18:19:13.949Z,11.27
2019-05-06T18:21:43.426Z,12.30
2019-05-06T18:24:14.343Z,8.07
2019-05-06T18:26:43.744Z,14.30
2019-05-06T18:29:13.217Z,12.33
2019-05-06T18:31:42.942Z,7.57
2019-05-06T18:34:13.332Z,12.63
2019-05-06T18:36:43.065Z,7.90
2019-05-06T18:39:12.768Z,14.53
2019-05-06T18:41:42.224Z,9.37
2019-05-06T18:44:12.074Z,10.57
2019-05-06T18:46:42.168Z,8.30
2019-05-06T18:49:13.038Z,7.63
2019-05-06T18:51:42.833Z,9.03
2019-05-06T18:54:12.625Z,9.20
2019-05-06T18:56:42.986Z,10.97
2019-05-06T18:59:12.738Z,12.27
2019-05-06T19:01:43.417Z,15.80
2019-05-06T19:04:14.690Z,11.60
2019-05-06T19:06:44.187Z,11.10
2019-05-06T19:09:19.686Z,9.37
2019-05-06T19:11:51.933Z,8.70
2019-05-06T19:14:21.901Z,11.00
2019-05-06T19:16:52.925Z,9.73
2019-05-06T19:19:35.109Z,12.33
2019-05-06T19:22:04.556Z,8.47
2019-05-06T19:24:33.980Z,10.67
2019-05-06T19:27:03.480Z,11.80
2019-05-06T19:29:33.360Z,7.93
2019-05-06T19:32:03.161Z,10.40
2019-05-06T19:34:35.233Z,9.43
2019-05-06T19:37:03.774Z,7.53
2019-05-06T19:39:33.497Z,7.73
2019-05-06T19:42:05.183Z,11.53
2019-05-06T19:44:34.282Z,9.77
2019-05-06T19:47:03.688Z,10.40
2019-05-06T19:49:33.144Z,10.00
2019-05-06T19:52:03.201Z,14.10
2019-05-06T19:54:34.410Z,8.57
2019-05-06T19:57:03.854Z,6.80
2019-05-06T19:59:34.263Z,9.23
2019-05-06T20:02:05.173Z,11.60
2019-05-06T20:04:35.720Z,11.07
2019-05-06T20:07:07.118Z,9.83
2019-05-06T20:09:52.266Z,11.80
2019-05-06T20:12:26.292Z,10.30
2019-05-06T20:14:57.733Z,8.93
2019-05-06T20:17:27.165Z,8.50
2019-05-06T20:19:57.052Z,8.33
2019-05-06T20:22:26.508Z,8.77
2019-05-06T20:24:55.956Z,9.33
2019-05-06T20:27:25.386Z,9.33
2019-05-06T20:29:54.784Z,7.87
2019-05-06T20:32:24.226Z,8.03
2019-05-06T20:34:53.621Z,12.33
2019-05-06T20:37:23.056Z,9.13
2019-05-06T20:39:52.443Z,10.23
2019-05-06T20:42:22.271Z,8.60
2019-05-06T20:44:52.451Z,11.60
2019-05-06T20:47:22.081Z,10.07
2019-05-06T20:49:52.644Z,7.63
2019-05-06T20:52:22.988Z,10.53
2019-05-06T20:54:52.570Z,6.17
2019-05-06T20:57:23.069Z,7.43
2019-05-06T20:59:52.733Z,8.20
2019-05-06T21:02:25.686Z,10.23
2019-05-06T21:04:53.324Z,6.90
2019-05-06T21:07:23.172Z,7.97
2019-05-06T21:09:54.244Z,8.23
2019-05-06T21:12:23.667Z,9.90
2019-05-06T21:14:53.057Z,10.90
2019-05-06T21:17:22.992Z,6.70
2019-05-06T21:19:52.448Z,14.13
2019-05-06T21:22:23.517Z,7.67
2019-05-06T21:24:52.938Z,9.40
2019-05-06T21:27:23.049Z,8.27
2019-05-06T21:29:52.883Z,7.63
2019-05-06T21:32:22.336Z,9.03
2019-05-06T21:34:52.550Z,9.97
2019-05-06T21:37:22.983Z,8.27
2019-05-06T21:39:53.027Z,9.00
2019-05-06T21:42:24.087Z,11.77
2019-05-06T21:44:53.701Z,15.90
2019-05-06T21:47:23.104Z,12.80
2019-05-06T21:49:52.929Z,8.93
2019-05-06T21:52:35.806Z,12.87
2019-05-06T21:54:53.473Z,9.03
2019-05-06T21:57:22.858Z,8.50
2019-05-06T21:59:52.656Z,10.27
2019-05-06T22:02:23.593Z,9.53
2019-05-06T22:04:55.650Z,13.27
2019-05-06T22:07:24.141Z,10.13
2019-05-06T22:09:53.567Z,11.53
2019-05-06T22:12:24.552Z,11.27
2019-05-06T22:14:54.188Z,14.63
2019-05-06T22:17:23.641Z,11.80
2019-05-06T22:19:53.073Z,12.47
2019-05-06T22:22:25.361Z,10.60
2019-05-06T22:24:57.611Z,12.20
2019-05-06T22:27:27.614Z,15.67
2019-05-06T22:29:57.046Z,12.93
2019-05-06T22:32:26.443Z,11.50
2019-05-06T22:34:55.853Z,11.17
2019-05-06T22:37:25.261Z,8.70
2019-05-06T22:39:54.694Z,13.73
2019-05-06T22:42:24.950Z,10.70
2019-05-06T22:44:54.592Z,9.73
2019-05-06T22:47:24.002Z,13.57
2019-05-06T22:49:54.307Z,11.30
2019-05-06T22:52:23.891Z,11.93
2019-05-06T22:54:53.312Z,12.07
2019-05-06T22:57:23.515Z,11.47
2019-05-06T22:59:54.985Z,10.73
2019-05-06T23:02:28.997Z,10.53
2019-05-06T23:05:04.340Z,14.53
2019-05-06T23:07:35.018Z,12.27
2019-05-06T23:10:06.647Z,9.13
2019-05-06T23:12:36.275Z,10.63
2019-05-06T23:15:08.028Z,9.70
2019-05-06T23:17:37.472Z,15.33
2019-05-06T23:20:07.544Z,14.00
2019-05-06T23:22:37.704Z,13.63
2019-05-06T23:25:07.275Z,14.73
2019-05-06T23:27:36.756Z,12.07
2019-05-06T23:30:09.611Z,13.60
2019-05-06T23:32:39.118Z,11.87
2019-05-06T23:35:08.671Z,12.43
2019-05-06T23:38:14.328Z,13.37
2019-05-06T23:41:21.884Z,8.07
2019-05-06T23:44:27.507Z,16.93
2019-05-06T23:47:34.311Z,11.47
2019-05-06T23:50:42.711Z,14.17
2019-05-06T23:53:48.299Z,7.83
2019-05-06T23:56:47.557Z,8.20
2019-05-06T23:59:18.172Z,6.43
